sensor_id;sensor_type;location;lat;lon;timestamp;P1;durP1;ratioP1;P2;durP2;ratioP2
54683;SDS011;40582;53.100;6.686;2022-08-18T00:01:09;26.35;;;6.97;;
54683;SDS011;40582;53.100;6.686;2022-08-18T00:03:38;27.35;;;7.28;;
54683;SDS011;40582;53.100;6.686;2022-08-18T00:06:05;32.85;;;7.40;;
54683;SDS011;40582;53.100;6.686;2022-08-18T00:08:31;26.67;;;7.78;;
54683;SDS011;40582;53.100;6.686;2022-08-18T00:10:57;30.27;;;7.50;;
54683;SDS011;40582;53.100;6.686;2022-08-18T00:13:24;25.80;;;7.57;;
54683;SDS011;40582;53.100;6.686;2022-08-18T00:15:51;31.17;;;8.27;;
54683;SDS011;40582;53.100;6.686;2022-08-18T00:18:17;27.83;;;7.55;;
54683;SDS011;40582;53.100;6.686;2022-08-18T00:20:42;21.95;;;7.57;;
54683;SDS011;40582;53.100;6.686;2022-08-18T00:23:08;20.27;;;7.20;;
54683;SDS011;40582;53.100;6.686;2022-08-18T00:25:34;28.92;;;9.68;;
54683;SDS011;40582;53.100;6.686;2022-08-18T00:28:00;36.28;;;9.73;;
54683;SDS011;40582;53.100;6.686;2022-08-18T00:30:26;26.83;;;8.02;;
54683;SDS011;40582;53.100;6.686;2022-08-18T00:32:53;19.15;;;7.40;;
54683;SDS011;40582;53.100;6.686;2022-08-18T00:35:25;27.10;;;7.82;;
54683;SDS011;40582;53.100;6.686;2022-08-18T00:37:53;33.85;;;8.70;;
54683;SDS011;40582;53.100;6.686;2022-08-18T00:40:25;35.65;;;8.43;;
54683;SDS011;40582;53.100;6.686;2022-08-18T00:42:55;25.38;;;8.55;;
54683;SDS011;40582;53.100;6.686;2022-08-18T00:45:25;21.52;;;9.27;;
54683;SDS011;40582;53.100;6.686;2022-08-18T00:48:00;32.40;;;10.57;;
54683;SDS011;40582;53.100;6.686;2022-08-18T00:50:33;24.27;;;7.70;;
54683;SDS011;40582;53.100;6.686;2022-08-18T00:53:06;29.40;;;10.82;;
54683;SDS011;40582;53.100;6.686;2022-08-18T00:55:39;17.77;;;7.80;;
54683;SDS011;40582;53.100;6.686;2022-08-18T00:58:08;20.25;;;8.50;;
54683;SDS011;40582;53.100;6.686;2022-08-18T01:00:40;23.10;;;8.80;;
54683;SDS011;40582;53.100;6.686;2022-08-18T01:03:08;21.10;;;8.48;;
54683;SDS011;40582;53.100;6.686;2022-08-18T01:05:58;22.80;;;10.23;;
54683;SDS011;40582;53.100;6.686;2022-08-18T01:08:27;18.90;;;9.77;;
54683;SDS011;40582;53.100;6.686;2022-08-18T01:10:53;33.35;;;10.63;;
54683;SDS011;40582;53.100;6.686;2022-08-18T01:13:19;26.33;;;11.32;;
54683;SDS011;40582;53.100;6.686;2022-08-18T01:15:45;26.15;;;10.90;;
54683;SDS011;40582;53.100;6.686;2022-08-18T01:18:12;26.85;;;11.70;;
54683;SDS011;40582;53.100;6.686;2022-08-18T01:20:59;24.98;;;11.23;;
54683;SDS011;40582;53.100;6.686;2022-08-18T01:23:56;35.05;;;13.52;;
54683;SDS011;40582;53.100;6.686;2022-08-18T01:26:24;34.53;;;13.02;;
54683;SDS011;40582;53.100;6.686;2022-08-18T01:28:52;25.08;;;11.55;;
54683;SDS011;40582;53.100;6.686;2022-08-18T01:31:28;27.58;;;12.18;;
54683;SDS011;40582;53.100;6.686;2022-08-18T01:33:57;16.58;;;10.18;;
54683;SDS011;40582;53.100;6.686;2022-08-18T01:36:25;25.70;;;11.20;;
54683;SDS011;40582;53.100;6.686;2022-08-18T01:38:52;32.15;;;11.55;;
54683;SDS011;40582;53.100;6.686;2022-08-18T01:41:21;33.88;;;11.40;;
54683;SDS011;40582;53.100;6.686;2022-08-18T01:43:48;47.13;;;14.52;;
54683;SDS011;40582;53.100;6.686;2022-08-18T01:46:17;21.60;;;10.27;;
54683;SDS011;40582;53.100;6.686;2022-08-18T01:48:45;25.30;;;11.32;;
54683;SDS011;40582;53.100;6.686;2022-08-18T01:51:12;22.17;;;9.65;;
54683;SDS011;40582;53.100;6.686;2022-08-18T01:53:39;24.20;;;10.10;;
54683;SDS011;40582;53.100;6.686;2022-08-18T01:56:06;35.92;;;11.07;;
54683;SDS011;40582;53.100;6.686;2022-08-18T01:58:32;24.73;;;9.77;;
54683;SDS011;40582;53.100;6.686;2022-08-18T02:00:59;19.38;;;9.23;;
54683;SDS011;40582;53.100;6.686;2022-08-18T02:03:36;24.42;;;9.95;;
54683;SDS011;40582;53.100;6.686;2022-08-18T02:06:04;27.10;;;9.52;;
54683;SDS011;40582;53.100;6.686;2022-08-18T02:08:34;27.75;;;10.05;;
54683;SDS011;40582;53.100;6.686;2022-08-18T02:11:00;28.98;;;8.85;;
54683;SDS011;40582;53.100;6.686;2022-08-18T02:13:27;21.98;;;9.25;;
54683;SDS011;40582;53.100;6.686;2022-08-18T02:15:54;24.05;;;8.80;;
54683;SDS011;40582;53.100;6.686;2022-08-18T02:18:21;22.92;;;8.57;;
54683;SDS011;40582;53.100;6.686;2022-08-18T02:20:52;27.55;;;8.05;;
54683;SDS011;40582;53.100;6.686;2022-08-18T02:23:19;25.88;;;8.50;;
54683;SDS011;40582;53.100;6.686;2022-08-18T02:25:44;32.92;;;8.98;;
54683;SDS011;40582;53.100;6.686;2022-08-18T02:28:10;27.85;;;8.85;;
54683;SDS011;40582;53.100;6.686;2022-08-18T02:30:36;24.38;;;7.97;;
54683;SDS011;40582;53.100;6.686;2022-08-18T02:33:06;28.85;;;9.40;;
54683;SDS011;40582;53.100;6.686;2022-08-18T02:35:33;38.28;;;10.07;;
54683;SDS011;40582;53.100;6.686;2022-08-18T02:38:00;42.13;;;9.60;;
54683;SDS011;40582;53.100;6.686;2022-08-18T02:40:28;36.20;;;9.45;;
54683;SDS011;40582;53.100;6.686;2022-08-18T02:42:54;34.22;;;9.95;;
54683;SDS011;40582;53.100;6.686;2022-08-18T02:45:20;40.35;;;10.07;;
54683;SDS011;40582;53.100;6.686;2022-08-18T02:47:51;24.65;;;9.13;;
54683;SDS011;40582;53.100;6.686;2022-08-18T02:50:18;38.40;;;10.35;;
54683;SDS011;40582;53.100;6.686;2022-08-18T02:52:44;28.50;;;10.02;;
54683;SDS011;40582;53.100;6.686;2022-08-18T02:55:10;39.45;;;10.90;;
54683;SDS011;40582;53.100;6.686;2022-08-18T02:57:39;36.08;;;10.15;;
54683;SDS011;40582;53.100;6.686;2022-08-18T03:00:07;34.30;;;10.43;;
54683;SDS011;40582;53.100;6.686;2022-08-18T03:02:37;32.63;;;10.40;;
54683;SDS011;40582;53.100;6.686;2022-08-18T03:05:03;39.10;;;10.18;;
54683;SDS011;40582;53.100;6.686;2022-08-18T03:07:29;37.47;;;10.45;;
54683;SDS011;40582;53.100;6.686;2022-08-18T03:09:55;31.20;;;10.35;;
54683;SDS011;40582;53.100;6.686;2022-08-18T03:12:21;28.45;;;9.75;;
54683;SDS011;40582;53.100;6.686;2022-08-18T03:14:47;31.25;;;10.95;;
54683;SDS011;40582;53.100;6.686;2022-08-18T03:17:12;26.75;;;9.85;;
54683;SDS011;40582;53.100;6.686;2022-08-18T03:19:38;30.02;;;9.68;;
54683;SDS011;40582;53.100;6.686;2022-08-18T03:22:06;24.52;;;10.07;;
54683;SDS011;40582;53.100;6.686;2022-08-18T03:24:33;25.27;;;9.43;;
54683;SDS011;40582;53.100;6.686;2022-08-18T03:27:02;37.22;;;9.85;;
54683;SDS011;40582;53.100;6.686;2022-08-18T03:29:30;27.83;;;10.25;;
54683;SDS011;40582;53.100;6.686;2022-08-18T03:31:56;21.08;;;9.93;;
54683;SDS011;40582;53.100;6.686;2022-08-18T03:34:22;32.13;;;9.90;;
54683;SDS011;40582;53.100;6.686;2022-08-18T03:36:48;25.40;;;10.18;;
54683;SDS011;40582;53.100;6.686;2022-08-18T03:39:15;20.58;;;10.02;;
54683;SDS011;40582;53.100;6.686;2022-08-18T03:41:43;33.03;;;11.38;;
54683;SDS011;40582;53.100;6.686;2022-08-18T03:44:10;34.97;;;13.40;;
54683;SDS011;40582;53.100;6.686;2022-08-18T03:46:39;36.15;;;13.93;;
54683;SDS011;40582;53.100;6.686;2022-08-18T03:49:05;40.67;;;11.00;;
54683;SDS011;40582;53.100;6.686;2022-08-18T03:51:32;30.40;;;12.55;;
54683;SDS011;40582;53.100;6.686;2022-08-18T03:53:59;27.75;;;11.90;;
54683;SDS011;40582;53.100;6.686;2022-08-18T03:56:33;45.50;;;14.45;;
54683;SDS011;40582;53.100;6.686;2022-08-18T03:59:06;49.88;;;15.85;;
54683;SDS011;40582;53.100;6.686;2022-08-18T04:01:39;42.95;;;13.75;;
54683;SDS011;40582;53.100;6.686;2022-08-18T04:04:11;35.35;;;13.65;;
54683;SDS011;40582;53.100;6.686;2022-08-18T04:06:42;30.83;;;13.07;;
54683;SDS011;40582;53.100;6.686;2022-08-18T04:09:18;42.97;;;12.93;;
54683;SDS011;40582;53.100;6.686;2022-08-18T04:11:45;29.80;;;12.98;;
54683;SDS011;40582;53.100;6.686;2022-08-18T04:14:12;37.90;;;12.68;;
54683;SDS011;40582;53.100;6.686;2022-08-18T04:16:39;30.63;;;13.02;;
54683;SDS011;40582;53.100;6.686;2022-08-18T04:19:06;38.60;;;12.93;;
54683;SDS011;40582;53.100;6.686;2022-08-18T04:21:34;36.15;;;13.68;;
54683;SDS011;40582;53.100;6.686;2022-08-18T04:24:02;38.15;;;15.50;;
54683;SDS011;40582;53.100;6.686;2022-08-18T04:26:33;31.85;;;14.32;;
54683;SDS011;40582;53.100;6.686;2022-08-18T04:29:00;35.83;;;13.63;;
54683;SDS011;40582;53.100;6.686;2022-08-18T04:31:27;43.00;;;15.18;;
54683;SDS011;40582;53.100;6.686;2022-08-18T04:33:54;33.88;;;15.10;;
54683;SDS011;40582;53.100;6.686;2022-08-18T04:36:21;44.08;;;15.93;;
54683;SDS011;40582;53.100;6.686;2022-08-18T04:38:47;35.78;;;14.75;;
54683;SDS011;40582;53.100;6.686;2022-08-18T04:41:13;37.08;;;16.23;;
54683;SDS011;40582;53.100;6.686;2022-08-18T04:43:39;34.85;;;14.43;;
54683;SDS011;40582;53.100;6.686;2022-08-18T04:46:06;39.53;;;16.15;;
54683;SDS011;40582;53.100;6.686;2022-08-18T04:48:34;43.00;;;15.05;;
54683;SDS011;40582;53.100;6.686;2022-08-18T04:53:34;51.80;;;17.45;;
54683;SDS011;40582;53.100;6.686;2022-08-18T04:56:20;37.13;;;15.45;;
54683;SDS011;40582;53.100;6.686;2022-08-18T05:01:23;38.83;;;15.43;;
54683;SDS011;40582;53.100;6.686;2022-08-18T05:03:51;36.75;;;14.45;;
54683;SDS011;40582;53.100;6.686;2022-08-18T05:06:19;36.20;;;15.00;;
54683;SDS011;40582;53.100;6.686;2022-08-18T05:08:49;31.95;;;14.88;;
54683;SDS011;40582;53.100;6.686;2022-08-18T05:11:21;27.80;;;12.63;;
54683;SDS011;40582;53.100;6.686;2022-08-18T05:13:48;31.92;;;12.95;;
54683;SDS011;40582;53.100;6.686;2022-08-18T05:16:16;30.95;;;13.23;;
54683;SDS011;40582;53.100;6.686;2022-08-18T05:18:41;33.83;;;15.05;;
54683;SDS011;40582;53.100;6.686;2022-08-18T05:21:07;30.48;;;12.18;;
54683;SDS011;40582;53.100;6.686;2022-08-18T05:23:41;33.53;;;13.10;;
54683;SDS011;40582;53.100;6.686;2022-08-18T05:26:07;27.42;;;12.77;;
54683;SDS011;40582;53.100;6.686;2022-08-18T05:28:34;25.13;;;11.80;;
54683;SDS011;40582;53.100;6.686;2022-08-18T05:31:08;24.60;;;13.27;;
54683;SDS011;40582;53.100;6.686;2022-08-18T05:33:36;27.15;;;12.18;;
54683;SDS011;40582;53.100;6.686;2022-08-18T05:36:04;20.83;;;11.43;;
54683;SDS011;40582;53.100;6.686;2022-08-18T05:41:23;28.67;;;12.80;;
54683;SDS011;40582;53.100;6.686;2022-08-18T05:43:52;27.70;;;12.02;;
54683;SDS011;40582;53.100;6.686;2022-08-18T05:46:20;25.65;;;11.90;;
54683;SDS011;40582;53.100;6.686;2022-08-18T05:48:56;16.98;;;10.80;;
54683;SDS011;40582;53.100;6.686;2022-08-18T05:51:24;26.80;;;11.23;;
54683;SDS011;40582;53.100;6.686;2022-08-18T05:53:55;20.65;;;11.95;;
54683;SDS011;40582;53.100;6.686;2022-08-18T05:56:39;29.37;;;12.63;;
54683;SDS011;40582;53.100;6.686;2022-08-18T05:59:13;19.30;;;12.40;;
54683;SDS011;40582;53.100;6.686;2022-08-18T06:01:48;27.50;;;12.07;;
54683;SDS011;40582;53.100;6.686;2022-08-18T06:04:22;26.10;;;11.52;;
54683;SDS011;40582;53.100;6.686;2022-08-18T06:07:00;26.13;;;12.48;;
54683;SDS011;40582;53.100;6.686;2022-08-18T06:12:37;31.98;;;11.38;;
54683;SDS011;40582;53.100;6.686;2022-08-18T06:15:08;21.10;;;11.55;;
54683;SDS011;40582;53.100;6.686;2022-08-18T06:17:42;18.52;;;11.35;;
54683;SDS011;40582;53.100;6.686;2022-08-18T06:20:42;23.40;;;12.27;;
54683;SDS011;40582;53.100;6.686;2022-08-18T06:26:19;20.25;;;11.30;;
54683;SDS011;40582;53.100;6.686;2022-08-18T06:35:15;16.88;;;10.20;;
54683;SDS011;40582;53.100;6.686;2022-08-18T06:41:32;24.50;;;12.20;;
54683;SDS011;40582;53.100;6.686;2022-08-18T06:44:08;21.42;;;11.45;;
54683;SDS011;40582;53.100;6.686;2022-08-18T06:49:07;24.90;;;12.43;;
54683;SDS011;40582;53.100;6.686;2022-08-18T06:51:36;28.58;;;13.57;;
54683;SDS011;40582;53.100;6.686;2022-08-18T06:54:04;23.77;;;11.45;;
54683;SDS011;40582;53.100;6.686;2022-08-18T07:01:38;23.80;;;9.63;;
54683;SDS011;40582;53.100;6.686;2022-08-18T07:04:04;15.18;;;7.50;;
54683;SDS011;40582;53.100;6.686;2022-08-18T07:06:30;22.83;;;8.35;;
54683;SDS011;40582;53.100;6.686;2022-08-18T07:12:05;24.38;;;8.07;;
54683;SDS011;40582;53.100;6.686;2022-08-18T07:14:47;18.70;;;7.60;;
54683;SDS011;40582;53.100;6.686;2022-08-18T07:17:20;18.92;;;7.45;;
54683;SDS011;40582;53.100;6.686;2022-08-18T07:22:51;21.88;;;7.50;;
54683;SDS011;40582;53.100;6.686;2022-08-18T07:25:44;22.05;;;7.05;;
54683;SDS011;40582;53.100;6.686;2022-08-18T07:31:24;23.73;;;6.20;;
54683;SDS011;40582;53.100;6.686;2022-08-18T07:36:29;17.13;;;5.32;;
54683;SDS011;40582;53.100;6.686;2022-08-18T07:39:42;16.65;;;5.05;;
54683;SDS011;40582;53.100;6.686;2022-08-18T07:42:02;14.90;;;5.57;;
54683;SDS011;40582;53.100;6.686;2022-08-18T07:44:44;21.77;;;5.85;;
54683;SDS011;40582;53.100;6.686;2022-08-18T07:49:47;24.65;;;6.13;;
54683;SDS011;40582;53.100;6.686;2022-08-18T07:55:00;16.33;;;4.28;;
54683;SDS011;40582;53.100;6.686;2022-08-18T08:00:09;21.15;;;4.88;;
54683;SDS011;40582;53.100;6.686;2022-08-18T08:08:01;13.73;;;3.42;;
54683;SDS011;40582;53.100;6.686;2022-08-18T08:10:59;19.85;;;4.35;;
54683;SDS011;40582;53.100;6.686;2022-08-18T08:15:53;15.60;;;4.20;;
54683;SDS011;40582;53.100;6.686;2022-08-18T08:21:08;15.95;;;3.22;;
54683;SDS011;40582;53.100;6.686;2022-08-18T08:26:21;12.73;;;3.20;;
54683;SDS011;40582;53.100;6.686;2022-08-18T08:34:17;13.27;;;3.60;;
54683;SDS011;40582;53.100;6.686;2022-08-18T08:36:48;11.15;;;2.78;;
54683;SDS011;40582;53.100;6.686;2022-08-18T08:42:27;18.10;;;3.17;;
54683;SDS011;40582;53.100;6.686;2022-08-18T08:45:18;11.80;;;3.55;;
54683;SDS011;40582;53.100;6.686;2022-08-18T08:50:24;14.45;;;2.80;;
54683;SDS011;40582;53.100;6.686;2022-08-18T08:52:59;11.63;;;3.00;;
54683;SDS011;40582;53.100;6.686;2022-08-18T08:55:33;13.00;;;2.83;;
54683;SDS011;40582;53.100;6.686;2022-08-18T09:00:32;11.52;;;2.33;;
54683;SDS011;40582;53.100;6.686;2022-08-18T09:03:11;7.22;;;2.05;;
54683;SDS011;40582;53.100;6.686;2022-08-18T09:08:21;8.77;;;2.30;;
54683;SDS011;40582;53.100;6.686;2022-08-18T09:10:59;11.93;;;2.72;;
54683;SDS011;40582;53.100;6.686;2022-08-18T09:19:53;5.28;;;2.13;;
54683;SDS011;40582;53.100;6.686;2022-08-18T09:25:30;7.07;;;2.15;;
54683;SDS011;40582;53.100;6.686;2022-08-18T09:36:12;8.93;;;2.45;;
54683;SDS011;40582;53.100;6.686;2022-08-18T09:38:54;5.88;;;2.60;;
54683;SDS011;40582;53.100;6.686;2022-08-18T09:42:01;9.45;;;2.78;;
54683;SDS011;40582;53.100;6.686;2022-08-18T09:47:10;12.55;;;2.45;;
54683;SDS011;40582;53.100;6.686;2022-08-18T09:57:33;8.85;;;2.28;;
54683;SDS011;40582;53.100;6.686;2022-08-18T10:07:47;6.13;;;2.10;;
54683;SDS011;40582;53.100;6.686;2022-08-18T10:10:35;8.40;;;2.60;;
54683;SDS011;40582;53.100;6.686;2022-08-18T10:16:23;6.40;;;2.22;;
54683;SDS011;40582;53.100;6.686;2022-08-18T10:22:08;5.68;;;2.42;;
54683;SDS011;40582;53.100;6.686;2022-08-18T10:27:33;7.07;;;2.08;;
54683;SDS011;40582;53.100;6.686;2022-08-18T10:30:42;8.38;;;2.42;;
54683;SDS011;40582;53.100;6.686;2022-08-18T10:33:08;11.98;;;3.13;;
54683;SDS011;40582;53.100;6.686;2022-08-18T10:38:03;7.07;;;2.40;;
54683;SDS011;40582;53.100;6.686;2022-08-18T10:40:35;5.87;;;2.10;;
54683;SDS011;40582;53.100;6.686;2022-08-18T10:43:15;6.97;;;2.60;;
54683;SDS011;40582;53.100;6.686;2022-08-18T10:45:44;8.73;;;2.40;;
54683;SDS011;40582;53.100;6.686;2022-08-18T10:53:50;7.10;;;2.15;;
54683;SDS011;40582;53.100;6.686;2022-08-18T10:56:28;9.75;;;2.55;;
54683;SDS011;40582;53.100;6.686;2022-08-18T10:59:07;6.88;;;2.13;;
54683;SDS011;40582;53.100;6.686;2022-08-18T11:05:06;9.82;;;2.20;;
54683;SDS011;40582;53.100;6.686;2022-08-18T11:07:33;4.50;;;2.17;;
54683;SDS011;40582;53.100;6.686;2022-08-18T11:10:14;7.60;;;2.25;;
54683;SDS011;40582;53.100;6.686;2022-08-18T11:15:23;7.22;;;2.60;;
54683;SDS011;40582;53.100;6.686;2022-08-18T11:26:28;6.43;;;2.35;;
54683;SDS011;40582;53.100;6.686;2022-08-18T11:28:55;11.93;;;2.10;;
54683;SDS011;40582;53.100;6.686;2022-08-18T11:31:22;11.23;;;2.45;;
54683;SDS011;40582;53.100;6.686;2022-08-18T11:33:48;5.78;;;2.08;;
54683;SDS011;40582;53.100;6.686;2022-08-18T11:36:14;7.45;;;2.50;;
54683;SDS011;40582;53.100;6.686;2022-08-18T11:38:52;10.07;;;2.13;;
54683;SDS011;40582;53.100;6.686;2022-08-18T11:41:19;6.32;;;1.80;;
54683;SDS011;40582;53.100;6.686;2022-08-18T11:43:57;5.30;;;2.17;;
54683;SDS011;40582;53.100;6.686;2022-08-18T11:46:31;9.23;;;2.20;;
54683;SDS011;40582;53.100;6.686;2022-08-18T11:49:13;7.45;;;2.13;;
54683;SDS011;40582;53.100;6.686;2022-08-18T11:51:55;10.07;;;2.28;;
54683;SDS011;40582;53.100;6.686;2022-08-18T11:54:31;9.63;;;2.70;;
54683;SDS011;40582;53.100;6.686;2022-08-18T12:06:34;5.93;;;2.53;;
54683;SDS011;40582;53.100;6.686;2022-08-18T12:08:49;6.03;;;2.40;;
54683;SDS011;40582;53.100;6.686;2022-08-18T12:11:35;7.47;;;2.33;;
54683;SDS011;40582;53.100;6.686;2022-08-18T12:14:05;7.65;;;2.17;;
54683;SDS011;40582;53.100;6.686;2022-08-18T12:16:40;4.18;;;1.83;;
54683;SDS011;40582;53.100;6.686;2022-08-18T12:19:09;8.98;;;2.20;;
54683;SDS011;40582;53.100;6.686;2022-08-18T12:21:39;8.00;;;2.33;;
54683;SDS011;40582;53.100;6.686;2022-08-18T12:27:05;7.45;;;2.03;;
54683;SDS011;40582;53.100;6.686;2022-08-18T12:29:31;5.53;;;1.75;;
54683;SDS011;40582;53.100;6.686;2022-08-18T12:31:58;7.15;;;2.10;;
54683;SDS011;40582;53.100;6.686;2022-08-18T12:34:24;5.03;;;2.00;;
54683;SDS011;40582;53.100;6.686;2022-08-18T12:36:53;5.90;;;2.20;;
54683;SDS011;40582;53.100;6.686;2022-08-18T12:39:21;9.93;;;1.98;;
54683;SDS011;40582;53.100;6.686;2022-08-18T12:41:48;6.40;;;1.90;;
54683;SDS011;40582;53.100;6.686;2022-08-18T12:44:13;6.63;;;2.38;;
54683;SDS011;40582;53.100;6.686;2022-08-18T12:46:39;5.35;;;2.33;;
54683;SDS011;40582;53.100;6.686;2022-08-18T12:49:06;3.15;;;1.50;;
54683;SDS011;40582;53.100;6.686;2022-08-18T12:51:39;3.92;;;1.85;;
54683;SDS011;40582;53.100;6.686;2022-08-18T12:54:05;3.75;;;1.70;;
54683;SDS011;40582;53.100;6.686;2022-08-18T12:56:30;3.60;;;1.90;;
54683;SDS011;40582;53.100;6.686;2022-08-18T12:58:57;7.10;;;1.98;;
54683;SDS011;40582;53.100;6.686;2022-08-18T13:01:25;5.70;;;2.00;;
54683;SDS011;40582;53.100;6.686;2022-08-18T13:03:51;13.25;;;2.15;;
54683;SDS011;40582;53.100;6.686;2022-08-18T13:06:19;11.45;;;2.15;;
54683;SDS011;40582;53.100;6.686;2022-08-18T13:08:47;4.15;;;1.85;;
54683;SDS011;40582;53.100;6.686;2022-08-18T13:11:14;5.97;;;2.05;;
54683;SDS011;40582;53.100;6.686;2022-08-18T13:13:40;5.28;;;1.77;;
54683;SDS011;40582;53.100;6.686;2022-08-18T13:16:07;8.27;;;1.95;;
54683;SDS011;40582;53.100;6.686;2022-08-18T13:18:36;3.83;;;1.70;;
54683;SDS011;40582;53.100;6.686;2022-08-18T13:21:05;19.38;;;1.85;;
54683;SDS011;40582;53.100;6.686;2022-08-18T13:23:33;39.75;;;2.90;;
54683;SDS011;40582;53.100;6.686;2022-08-18T13:25:59;6.43;;;2.00;;
54683;SDS011;40582;53.100;6.686;2022-08-18T13:28:26;5.60;;;2.00;;
54683;SDS011;40582;53.100;6.686;2022-08-18T13:30:52;5.57;;;2.30;;
54683;SDS011;40582;53.100;6.686;2022-08-18T13:33:18;13.18;;;3.50;;
54683;SDS011;40582;53.100;6.686;2022-08-18T13:35:45;4.35;;;2.05;;
54683;SDS011;40582;53.100;6.686;2022-08-18T13:38:12;8.13;;;2.20;;
54683;SDS011;40582;53.100;6.686;2022-08-18T13:40:39;12.07;;;2.33;;
54683;SDS011;40582;53.100;6.686;2022-08-18T13:43:06;2.72;;;1.70;;
54683;SDS011;40582;53.100;6.686;2022-08-18T13:45:33;6.22;;;2.25;;
54683;SDS011;40582;53.100;6.686;2022-08-18T13:47:59;4.10;;;2.08;;
54683;SDS011;40582;53.100;6.686;2022-08-18T13:50:24;5.95;;;2.10;;
54683;SDS011;40582;53.100;6.686;2022-08-18T13:52:50;7.03;;;1.88;;
54683;SDS011;40582;53.100;6.686;2022-08-18T13:55:17;5.20;;;1.80;;
54683;SDS011;40582;53.100;6.686;2022-08-18T13:57:44;4.55;;;1.80;;
54683;SDS011;40582;53.100;6.686;2022-08-18T14:00:17;3.22;;;1.90;;
54683;SDS011;40582;53.100;6.686;2022-08-18T14:02:46;4.55;;;2.03;;
54683;SDS011;40582;53.100;6.686;2022-08-18T14:05:16;3.95;;;1.70;;
54683;SDS011;40582;53.100;6.686;2022-08-18T14:07:42;6.28;;;2.10;;
54683;SDS011;40582;53.100;6.686;2022-08-18T14:10:08;4.93;;;1.77;;
54683;SDS011;40582;53.100;6.686;2022-08-18T14:12:34;3.97;;;1.80;;
54683;SDS011;40582;53.100;6.686;2022-08-18T14:15:03;5.45;;;2.10;;
54683;SDS011;40582;53.100;6.686;2022-08-18T14:17:31;6.80;;;2.35;;
54683;SDS011;40582;53.100;6.686;2022-08-18T14:19:58;2.25;;;1.90;;
54683;SDS011;40582;53.100;6.686;2022-08-18T14:22:42;5.80;;;1.77;;
54683;SDS011;40582;53.100;6.686;2022-08-18T14:25:27;3.95;;;1.80;;
54683;SDS011;40582;53.100;6.686;2022-08-18T14:28:12;3.15;;;1.60;;
54683;SDS011;40582;53.100;6.686;2022-08-18T14:30:38;2.92;;;1.70;;
54683;SDS011;40582;53.100;6.686;2022-08-18T14:33:05;6.07;;;1.95;;
54683;SDS011;40582;53.100;6.686;2022-08-18T14:35:32;3.58;;;1.80;;
54683;SDS011;40582;53.100;6.686;2022-08-18T14:37:59;2.63;;;1.73;;
54683;SDS011;40582;53.100;6.686;2022-08-18T14:40:26;6.60;;;2.00;;
54683;SDS011;40582;53.100;6.686;2022-08-18T14:42:52;3.63;;;2.10;;
54683;SDS011;40582;53.100;6.686;2022-08-18T14:45:19;4.93;;;1.85;;
54683;SDS011;40582;53.100;6.686;2022-08-18T14:47:45;4.93;;;1.95;;
54683;SDS011;40582;53.100;6.686;2022-08-18T14:50:11;3.55;;;2.08;;
54683;SDS011;40582;53.100;6.686;2022-08-18T14:52:40;3.88;;;1.80;;
54683;SDS011;40582;53.100;6.686;2022-08-18T14:55:07;5.03;;;2.17;;
54683;SDS011;40582;53.100;6.686;2022-08-18T14:57:36;3.17;;;1.80;;
54683;SDS011;40582;53.100;6.686;2022-08-18T15:00:04;5.47;;;2.10;;
54683;SDS011;40582;53.100;6.686;2022-08-18T15:02:34;5.30;;;2.00;;
54683;SDS011;40582;53.100;6.686;2022-08-18T15:05:00;3.85;;;2.08;;
54683;SDS011;40582;53.100;6.686;2022-08-18T15:07:26;2.40;;;1.98;;
54683;SDS011;40582;53.100;6.686;2022-08-18T15:09:52;3.30;;;1.88;;
54683;SDS011;40582;53.100;6.686;2022-08-18T15:12:18;4.22;;;1.80;;
54683;SDS011;40582;53.100;6.686;2022-08-18T15:14:44;3.63;;;2.00;;
54683;SDS011;40582;53.100;6.686;2022-08-18T15:17:12;2.88;;;1.92;;
54683;SDS011;40582;53.100;6.686;2022-08-18T15:19:37;5.53;;;1.90;;
54683;SDS011;40582;53.100;6.686;2022-08-18T15:22:03;1.42;;;1.27;;
54683;SDS011;40582;53.100;6.686;2022-08-18T15:24:47;4.32;;;2.03;;
54683;SDS011;40582;53.100;6.686;2022-08-18T15:27:32;4.05;;;1.75;;
54683;SDS011;40582;53.100;6.686;2022-08-18T15:30:01;3.85;;;1.75;;
54683;SDS011;40582;53.100;6.686;2022-08-18T15:32:29;5.90;;;2.00;;
54683;SDS011;40582;53.100;6.686;2022-08-18T15:34:55;3.70;;;1.80;;
54683;SDS011;40582;53.100;6.686;2022-08-18T15:37:20;4.15;;;1.92;;
54683;SDS011;40582;53.100;6.686;2022-08-18T15:39:47;6.60;;;1.60;;
54683;SDS011;40582;53.100;6.686;2022-08-18T15:42:13;7.45;;;1.73;;
54683;SDS011;40582;53.100;6.686;2022-08-18T15:44:39;4.70;;;1.67;;
54683;SDS011;40582;53.100;6.686;2022-08-18T15:47:05;7.13;;;2.05;;
54683;SDS011;40582;53.100;6.686;2022-08-18T15:49:31;5.90;;;2.33;;
54683;SDS011;40582;53.100;6.686;2022-08-18T15:51:57;4.68;;;1.92;;
54683;SDS011;40582;53.100;6.686;2022-08-18T15:54:23;4.95;;;1.80;;
54683;SDS011;40582;53.100;6.686;2022-08-18T15:56:49;5.00;;;1.92;;
54683;SDS011;40582;53.100;6.686;2022-08-18T15:59:17;4.50;;;2.15;;
54683;SDS011;40582;53.100;6.686;2022-08-18T16:01:43;3.22;;;1.75;;
54683;SDS011;40582;53.100;6.686;2022-08-18T16:04:08;3.55;;;1.80;;
54683;SDS011;40582;53.100;6.686;2022-08-18T16:06:34;2.08;;;1.60;;
54683;SDS011;40582;53.100;6.686;2022-08-18T16:09:04;3.75;;;2.00;;
54683;SDS011;40582;53.100;6.686;2022-08-18T16:11:29;3.13;;;1.98;;
54683;SDS011;40582;53.100;6.686;2022-08-18T16:13:56;3.20;;;2.03;;
54683;SDS011;40582;53.100;6.686;2022-08-18T16:16:25;3.08;;;1.50;;
54683;SDS011;40582;53.100;6.686;2022-08-18T16:18:51;5.20;;;1.90;;
54683;SDS011;40582;53.100;6.686;2022-08-18T16:21:20;4.25;;;1.70;;
54683;SDS011;40582;53.100;6.686;2022-08-18T16:23:47;7.93;;;1.85;;
54683;SDS011;40582;53.100;6.686;2022-08-18T16:26:16;3.28;;;1.67;;
54683;SDS011;40582;53.100;6.686;2022-08-18T16:28:43;3.95;;;1.70;;
54683;SDS011;40582;53.100;6.686;2022-08-18T16:31:11;4.72;;;1.77;;
54683;SDS011;40582;53.100;6.686;2022-08-18T16:33:41;4.43;;;1.80;;
54683;SDS011;40582;53.100;6.686;2022-08-18T16:36:08;5.90;;;1.88;;
54683;SDS011;40582;53.100;6.686;2022-08-18T16:38:35;4.40;;;1.80;;
54683;SDS011;40582;53.100;6.686;2022-08-18T16:41:05;5.07;;;1.95;;
54683;SDS011;40582;53.100;6.686;2022-08-18T16:43:33;1.95;;;1.45;;
54683;SDS011;40582;53.100;6.686;2022-08-18T16:46:00;4.40;;;2.00;;
54683;SDS011;40582;53.100;6.686;2022-08-18T16:48:27;5.88;;;2.10;;
54683;SDS011;40582;53.100;6.686;2022-08-18T16:50:53;6.28;;;1.90;;
54683;SDS011;40582;53.100;6.686;2022-08-18T16:53:19;6.05;;;2.38;;
54683;SDS011;40582;53.100;6.686;2022-08-18T16:55:45;4.55;;;1.75;;
54683;SDS011;40582;53.100;6.686;2022-08-18T16:58:11;2.67;;;1.80;;
54683;SDS011;40582;53.100;6.686;2022-08-18T17:00:55;3.13;;;1.65;;
54683;SDS011;40582;53.100;6.686;2022-08-18T17:03:40;4.05;;;1.80;;
54683;SDS011;40582;53.100;6.686;2022-08-18T17:06:24;3.23;;;1.77;;
54683;SDS011;40582;53.100;6.686;2022-08-18T17:08:52;6.05;;;2.10;;
54683;SDS011;40582;53.100;6.686;2022-08-18T17:11:19;3.03;;;1.70;;
54683;SDS011;40582;53.100;6.686;2022-08-18T17:13:46;4.47;;;1.98;;
54683;SDS011;40582;53.100;6.686;2022-08-18T17:16:13;5.90;;;2.40;;
54683;SDS011;40582;53.100;6.686;2022-08-18T17:18:40;4.32;;;1.88;;
54683;SDS011;40582;53.100;6.686;2022-08-18T17:21:07;3.30;;;1.80;;
54683;SDS011;40582;53.100;6.686;2022-08-18T17:23:35;4.60;;;1.95;;
54683;SDS011;40582;53.100;6.686;2022-08-18T17:26:01;1.67;;;1.48;;
54683;SDS011;40582;53.100;6.686;2022-08-18T17:28:42;3.83;;;1.88;;
54683;SDS011;40582;53.100;6.686;2022-08-18T17:31:14;4.68;;;1.70;;
54683;SDS011;40582;53.100;6.686;2022-08-18T17:33:39;6.25;;;2.00;;